createdAt,value
2019-01-26T00:01:44.354Z,20.30
2019-01-26T00:04:12.972Z,23.02
2019-01-26T00:06:44.757Z,24.85
2019-01-26T00:09:16.357Z,23.18
2019-01-26T00:11:44.924Z,23.27
2019-01-26T00:14:16.284Z,22.85
2019-01-26T00:16:44.851Z,21.42
2019-01-26T00:19:14.299Z,22.65
2019-01-26T00:21:42.994Z,21.60
2019-01-26T00:24:11.611Z,20.90
2019-01-26T00:26:40.266Z,20.92
2019-01-26T00:29:09.417Z,21.70
2019-01-26T00:31:38.022Z,23.85
2019-01-26T00:34:06.913Z,22.77
2019-01-26T00:36:38.494Z,21.75
2019-01-26T00:39:09.870Z,21.07
2019-01-26T00:41:38.865Z,22.65
2019-01-26T00:44:07.480Z,22.77
2019-01-26T00:46:36.493Z,23.15
2019-01-26T00:49:05.507Z,24.40
2019-01-26T00:51:34.140Z,22.02
2019-01-26T00:54:02.879Z,20.68
2019-01-26T00:56:34.463Z,20.60
2019-01-26T00:59:03.090Z,20.68
2019-01-26T01:01:31.715Z,20.55
2019-01-26T01:04:00.510Z,21.15
2019-01-26T01:06:29.300Z,23.50
2019-01-26T01:08:57.898Z,20.72
2019-01-26T01:11:29.563Z,19.70
2019-01-26T01:14:00.851Z,21.70
2019-01-26T01:16:36.040Z,19.87
2019-01-26T01:19:03.659Z,22.17
2019-01-26T01:21:32.501Z,22.13
2019-01-26T01:24:01.071Z,19.27
2019-01-26T01:26:29.683Z,20.23
2019-01-26T01:29:01.497Z,21.40
2019-01-26T01:31:32.707Z,21.50
2019-01-26T01:34:04.315Z,19.00
2019-01-26T01:36:32.978Z,17.62
2019-01-26T01:39:01.904Z,18.82
2019-01-26T01:41:33.338Z,18.15
2019-01-26T01:44:04.961Z,18.62
2019-01-26T01:46:33.858Z,18.00
2019-01-26T01:49:02.491Z,19.98
2019-01-26T01:51:34.107Z,21.37
2019-01-26T01:54:05.773Z,19.37
2019-01-26T01:56:34.359Z,20.23
2019-01-26T01:59:05.871Z,19.00
2019-01-26T02:01:37.243Z,17.42
2019-01-26T02:04:06.179Z,17.95
2019-01-26T02:06:38.011Z,19.75
2019-01-26T02:09:08.034Z,16.97
2019-01-26T02:11:39.405Z,19.67
2019-01-26T02:14:10.991Z,20.48
2019-01-26T02:16:42.491Z,19.07
2019-01-26T02:19:11.369Z,20.50
2019-01-26T02:21:39.986Z,22.20
2019-01-26T02:24:08.596Z,20.45
2019-01-26T02:26:40.202Z,22.55
2019-01-26T02:29:12.357Z,19.12
2019-01-26T02:31:43.691Z,20.85
2019-01-26T02:34:12.258Z,21.33
2019-01-26T02:36:44.012Z,21.15
2019-01-26T02:39:12.577Z,19.42
2019-01-26T02:41:41.185Z,19.67
2019-01-26T02:44:12.501Z,19.42
2019-01-26T02:46:41.076Z,19.75
2019-01-26T02:49:12.772Z,24.27
2019-01-26T02:51:41.317Z,20.75
2019-01-26T02:54:10.310Z,19.57
2019-01-26T02:56:38.990Z,20.90
2019-01-26T02:59:10.617Z,23.12
2019-01-26T03:01:42.215Z,21.60
2019-01-26T03:04:13.808Z,22.60
2019-01-26T03:06:42.414Z,20.88
2019-01-26T03:09:11.110Z,24.02
2019-01-26T03:11:39.725Z,23.02
2019-01-26T03:14:08.318Z,22.85
2019-01-26T03:16:36.930Z,24.90
2019-01-26T03:19:05.775Z,22.98
2019-01-26T03:21:34.692Z,23.42
2019-01-26T03:24:06.483Z,22.17
2019-01-26T03:26:35.085Z,23.80
2019-01-26T03:29:03.728Z,25.43
2019-01-26T03:31:32.346Z,23.27
2019-01-26T03:34:03.672Z,22.37
2019-01-26T03:36:32.288Z,22.58
2019-01-26T03:39:05.343Z,22.80
2019-01-26T03:41:33.941Z,24.32
2019-01-26T03:44:02.508Z,24.30
2019-01-26T03:46:31.077Z,23.95
2019-01-26T03:49:00.070Z,24.02
2019-01-26T03:51:28.678Z,24.82
2019-01-26T03:54:00.258Z,24.02
2019-01-26T03:56:28.994Z,25.23
2019-01-26T03:58:58.056Z,24.18
2019-01-26T04:01:29.352Z,23.35
2019-01-26T04:03:58.537Z,27.73
2019-01-26T04:06:27.145Z,26.33
2019-01-26T04:08:59.092Z,25.80
2019-01-26T04:11:27.639Z,22.67
2019-01-26T04:13:59.018Z,26.40
2019-01-26T04:16:30.468Z,27.67
2019-01-26T04:19:01.811Z,24.27
2019-01-26T04:21:33.382Z,25.82
2019-01-26T04:24:05.059Z,28.12
2019-01-26T04:26:33.618Z,25.87
2019-01-26T04:29:05.201Z,27.05
2019-01-26T04:31:33.846Z,25.95
2019-01-26T04:34:02.825Z,25.97
2019-01-26T04:36:34.310Z,25.95
2019-01-26T04:39:07.969Z,24.43
2019-01-26T04:41:36.622Z,25.20
2019-01-26T04:44:05.417Z,27.32
2019-01-26T04:46:34.020Z,26.97
2019-01-26T04:49:05.617Z,26.97
2019-01-26T04:51:34.224Z,26.60
2019-01-26T04:54:05.811Z,27.40
2019-01-26T04:56:34.411Z,25.17
2019-01-26T04:59:03.036Z,26.37
2019-01-26T05:01:32.584Z,25.35
2019-01-26T05:04:04.603Z,27.23
2019-01-26T05:06:33.212Z,24.75
2019-01-26T05:09:07.803Z,27.27
2019-01-26T05:11:39.136Z,27.70
2019-01-26T05:14:07.690Z,25.50
2019-01-26T05:16:36.316Z,28.27
2019-01-26T05:19:04.997Z,26.20
2019-01-26T05:21:36.601Z,26.37
2019-01-26T05:24:07.838Z,26.95
2019-01-26T05:26:36.455Z,25.68
2019-01-26T05:29:08.527Z,24.27
2019-01-26T05:31:37.091Z,24.95
2019-01-26T05:34:08.687Z,23.60
2019-01-26T05:36:37.303Z,24.82
2019-01-26T05:39:08.070Z,26.25
2019-01-26T05:41:39.619Z,21.37
2019-01-26T05:44:11.231Z,25.20
2019-01-26T05:46:42.473Z,21.30
2019-01-26T05:49:11.152Z,26.50
2019-01-26T05:51:39.710Z,24.95
2019-01-26T05:54:08.329Z,24.45
2019-01-26T05:56:37.326Z,26.17
2019-01-26T05:59:08.987Z,23.92
2019-01-26T06:01:41.236Z,23.47
2019-01-26T06:04:09.875Z,23.90
2019-01-26T06:06:41.590Z,25.00
2019-01-26T06:09:13.049Z,23.27
2019-01-26T06:11:41.727Z,24.77
2019-01-26T06:14:13.055Z,23.22
2019-01-26T06:16:41.657Z,20.02
2019-01-26T06:19:10.487Z,24.10
2019-01-26T06:21:39.095Z,24.02
2019-01-26T06:24:07.686Z,22.90
2019-01-26T06:26:36.303Z,22.63
2019-01-26T06:29:05.027Z,23.30
2019-01-26T06:31:36.649Z,24.40
2019-01-26T06:34:05.203Z,23.05
2019-01-26T06:36:36.594Z,23.77
2019-01-26T06:39:08.536Z,25.30
2019-01-26T06:41:40.185Z,25.63
2019-01-26T06:44:11.793Z,30.48
2019-01-26T06:46:43.329Z,23.90
2019-01-26T06:49:12.514Z,23.10
2019-01-26T06:51:42.815Z,23.40
2019-01-26T06:54:11.447Z,23.43
2019-01-26T06:56:43.035Z,24.37
2019-01-26T06:59:14.860Z,23.03
2019-01-26T07:01:46.424Z,21.97
2019-01-26T07:04:19.655Z,21.97
2019-01-26T07:06:52.529Z,22.63
2019-01-26T07:09:24.434Z,19.93
2019-01-26T07:11:53.053Z,23.33
2019-01-26T07:14:21.660Z,24.30
2019-01-26T07:16:50.249Z,22.40
2019-01-26T07:19:22.608Z,22.40
2019-01-26T07:21:54.294Z,24.80
2019-01-26T07:24:24.861Z,23.00
2019-01-26T07:26:53.531Z,20.60
2019-01-26T07:29:25.161Z,20.73
2019-01-26T07:31:56.462Z,21.30
2019-01-26T07:34:27.889Z,21.83
2019-01-26T07:36:56.514Z,22.10
2019-01-26T07:39:27.930Z,21.67
2019-01-26T07:41:56.859Z,21.00
2019-01-26T07:44:28.217Z,22.70
2019-01-26T07:46:56.816Z,19.10
2019-01-26T07:49:26.339Z,21.63
2019-01-26T07:51:54.937Z,20.00
2019-01-26T07:54:26.456Z,20.53
2019-01-26T07:56:55.012Z,22.00
2019-01-26T07:59:25.147Z,20.70
2019-01-26T08:01:56.376Z,21.13
2019-01-26T08:04:27.928Z,21.23
2019-01-26T08:06:59.158Z,21.17
2019-01-26T08:09:30.523Z,25.35
2019-01-26T08:12:02.030Z,21.67
2019-01-26T08:14:33.304Z,20.60
2019-01-26T08:17:05.607Z,22.97
2019-01-26T08:19:36.918Z,22.07
2019-01-26T08:22:05.899Z,21.60
2019-01-26T08:24:37.647Z,20.10
2019-01-26T08:27:06.241Z,20.00
2019-01-26T08:29:35.109Z,21.77
2019-01-26T08:32:06.441Z,18.73
2019-01-26T08:34:35.007Z,16.50
2019-01-26T08:37:03.604Z,22.87
2019-01-26T08:39:35.202Z,19.40
2019-01-26T08:42:06.585Z,19.97
2019-01-26T08:44:38.460Z,19.00
2019-01-26T08:47:07.121Z,19.83
2019-01-26T08:49:36.631Z,18.73
2019-01-26T08:52:05.365Z,17.60
2019-01-26T08:54:36.748Z,19.40
2019-01-26T08:57:08.544Z,19.70
2019-01-26T08:59:37.102Z,18.67
2019-01-26T09:02:10.034Z,18.70
2019-01-26T09:04:38.626Z,16.63
2019-01-26T09:07:09.955Z,17.20
2019-01-26T09:09:38.550Z,17.77
2019-01-26T09:12:07.099Z,15.80
2019-01-26T09:14:38.913Z,19.83
2019-01-26T09:17:07.566Z,17.43
2019-01-26T09:19:38.255Z,17.80
2019-01-26T09:22:09.693Z,17.00
2019-01-26T09:24:41.284Z,18.77
2019-01-26T09:27:10.287Z,20.10
2019-01-26T09:29:38.891Z,18.67
2019-01-26T09:32:07.642Z,19.30
2019-01-26T09:34:37.406Z,17.23
2019-01-26T09:37:08.788Z,18.87
2019-01-26T09:39:37.372Z,18.37
2019-01-26T09:42:09.262Z,18.40
2019-01-26T09:44:40.998Z,19.57
2019-01-26T09:47:09.554Z,19.43
2019-01-26T09:49:38.221Z,20.83
2019-01-26T09:52:07.035Z,19.07
2019-01-26T09:54:35.761Z,15.30
2019-01-26T09:57:04.469Z,18.30
2019-01-26T09:59:35.894Z,16.73
2019-01-26T10:02:04.631Z,17.40
2019-01-26T10:04:36.237Z,17.47
2019-01-26T10:07:05.208Z,15.13
2019-01-26T10:09:34.142Z,16.00
2019-01-26T10:12:03.163Z,16.27
2019-01-26T10:14:34.854Z,16.70
2019-01-26T10:17:06.548Z,15.90
2019-01-26T10:19:37.978Z,15.50
2019-01-26T10:22:09.718Z,13.63
2019-01-26T10:24:38.328Z,16.07
2019-01-26T10:27:07.142Z,13.90
2019-01-26T10:29:38.928Z,13.40
2019-01-26T10:32:10.506Z,15.07
2019-01-26T10:34:39.113Z,14.00
2019-01-26T10:37:09.508Z,12.40
2019-01-26T10:39:41.356Z,14.93
2019-01-26T10:42:11.608Z,15.37
2019-01-26T10:44:40.569Z,13.73
2019-01-26T10:47:09.338Z,13.30
2019-01-26T10:49:37.924Z,14.97
2019-01-26T10:52:06.659Z,14.13
2019-01-26T10:54:38.237Z,13.67
2019-01-26T10:57:07.277Z,14.83
2019-01-26T10:59:38.747Z,12.93
2019-01-26T11:02:10.581Z,15.07
2019-01-26T11:04:39.549Z,15.20
2019-01-26T11:07:10.890Z,14.30
2019-01-26T11:09:42.176Z,12.83
2019-01-26T11:12:13.650Z,13.03
2019-01-26T11:14:45.242Z,15.03
2019-01-26T11:17:17.043Z,13.60
2019-01-26T11:19:48.331Z,13.03
2019-01-26T11:22:20.024Z,12.73
2019-01-26T11:24:48.596Z,12.23
2019-01-26T11:27:17.755Z,12.10
2019-01-26T11:29:49.477Z,11.87
2019-01-26T11:32:22.693Z,11.77
2019-01-26T11:34:51.374Z,10.80
2019-01-26T11:37:24.500Z,12.80
2019-01-26T11:39:57.517Z,11.30
2019-01-26T11:42:27.660Z,10.43
2019-01-26T11:45:14.391Z,9.70
2019-01-26T11:47:43.003Z,11.20
2019-01-26T11:50:13.351Z,9.87
2019-01-26T11:52:41.963Z,10.20
2019-01-26T11:55:12.321Z,8.63
2019-01-26T11:57:40.943Z,8.23
2019-01-26T12:00:14.385Z,8.03
2019-01-26T12:02:45.027Z,7.63
2019-01-26T12:05:15.275Z,7.97
2019-01-26T12:07:43.835Z,8.20
2019-01-26T12:10:12.722Z,6.50
2019-01-26T12:12:44.504Z,8.53
2019-01-26T12:15:14.734Z,6.93
2019-01-26T12:17:46.482Z,6.90
2019-01-26T12:20:17.313Z,6.87
2019-01-26T12:22:46.277Z,7.47
2019-01-26T12:25:14.996Z,6.50
2019-01-26T12:27:46.557Z,8.17
2019-01-26T12:30:15.869Z,6.50
2019-01-26T12:32:44.540Z,6.23
2019-01-26T12:35:16.263Z,6.40
2019-01-26T12:37:45.014Z,6.80
2019-01-26T12:40:16.698Z,7.90
2019-01-26T12:42:45.320Z,5.90
2019-01-26T12:45:22.498Z,6.00
2019-01-26T12:47:53.329Z,5.30
2019-01-26T12:50:25.426Z,5.90
2019-01-26T12:52:54.389Z,6.13
2019-01-26T12:55:24.501Z,5.17
2019-01-26T12:57:56.097Z,5.00
2019-01-26T13:00:26.280Z,5.07
2019-01-26T13:02:54.894Z,5.00
2019-01-26T13:05:27.388Z,4.90
2019-01-26T13:07:58.901Z,4.27
2019-01-26T13:10:36.651Z,3.93
2019-01-26T13:13:06.898Z,5.00
2019-01-26T13:15:38.465Z,4.73
2019-01-26T13:18:07.285Z,4.80
2019-01-26T13:20:38.646Z,5.63
2019-01-26T13:23:07.254Z,4.80
2019-01-26T13:25:36.334Z,5.03
2019-01-26T13:28:05.387Z,4.87
2019-01-26T13:30:33.938Z,4.60
2019-01-26T13:33:05.676Z,6.60
2019-01-26T13:35:34.400Z,5.87
2019-01-26T13:38:06.091Z,5.20
2019-01-26T13:40:37.784Z,6.30
2019-01-26T13:43:06.994Z,5.10
2019-01-26T13:45:38.414Z,6.07
2019-01-26T13:48:07.224Z,5.10
2019-01-26T13:50:36.376Z,6.43
2019-01-26T13:53:05.305Z,6.40
2019-01-26T13:55:36.947Z,7.07
2019-01-26T13:58:08.414Z,5.20
2019-01-26T14:00:38.010Z,5.10
2019-01-26T14:03:07.202Z,6.00
2019-01-26T14:05:39.179Z,15.53
2019-01-26T14:08:07.894Z,6.70
2019-01-26T14:10:39.478Z,6.37
2019-01-26T14:13:08.078Z,6.80
2019-01-26T14:15:36.730Z,6.03
2019-01-26T14:18:05.478Z,6.27
2019-01-26T14:20:34.059Z,5.53
2019-01-26T14:23:02.832Z,5.73
2019-01-26T14:25:31.539Z,5.90
2019-01-26T14:28:00.253Z,5.00
2019-01-26T14:30:40.311Z,6.13
2019-01-26T14:33:11.938Z,5.30
2019-01-26T14:35:40.524Z,5.37
2019-01-26T14:38:12.157Z,5.90
2019-01-26T14:40:43.632Z,5.00
2019-01-26T14:43:12.246Z,4.97
2019-01-26T14:45:40.832Z,5.73
2019-01-26T14:48:09.822Z,5.30
2019-01-26T14:50:39.371Z,6.27
2019-01-26T14:53:08.196Z,5.67
2019-01-26T14:55:36.817Z,5.10
2019-01-26T14:58:08.422Z,5.10
2019-01-26T15:00:40.085Z,6.07
2019-01-26T15:03:08.750Z,5.73
2019-01-26T15:05:37.790Z,6.50
2019-01-26T15:08:06.531Z,5.27
2019-01-26T15:10:35.147Z,5.80
2019-01-26T15:13:03.862Z,5.83
2019-01-26T15:15:35.427Z,5.27
2019-01-26T15:18:04.577Z,6.00
2019-01-26T15:20:38.735Z,6.43
2019-01-26T15:23:08.589Z,6.83
2019-01-26T15:25:40.170Z,7.17
2019-01-26T15:28:08.779Z,6.50
2019-01-26T15:30:41.482Z,5.70
2019-01-26T15:33:12.286Z,6.03
2019-01-26T15:35:40.981Z,6.30
2019-01-26T15:38:09.724Z,5.97
2019-01-26T15:40:38.352Z,6.07
2019-01-26T15:43:07.180Z,6.10
2019-01-26T15:45:43.679Z,6.00
2019-01-26T15:48:12.357Z,7.07
2019-01-26T15:50:42.033Z,8.00
2019-01-26T15:53:11.278Z,8.23
2019-01-26T15:55:39.816Z,7.30
2019-01-26T15:58:08.481Z,8.20
2019-01-26T16:00:39.946Z,9.10
2019-01-26T16:03:08.981Z,7.80
2019-01-26T16:05:40.791Z,8.20
2019-01-26T16:08:09.851Z,7.57
2019-01-26T16:10:41.106Z,8.63
2019-01-26T16:13:12.347Z,7.30
2019-01-26T16:15:40.915Z,8.60
2019-01-26T16:18:11.961Z,8.37
2019-01-26T16:20:43.357Z,9.00
2019-01-26T16:23:15.040Z,8.43
2019-01-26T16:25:46.555Z,8.27
2019-01-26T16:28:18.208Z,8.17
2019-01-26T16:30:46.757Z,9.40
2019-01-26T16:33:18.100Z,8.67
2019-01-26T16:35:49.617Z,7.77
2019-01-26T16:38:21.005Z,9.53
2019-01-26T16:40:52.835Z,7.57
2019-01-26T16:43:24.229Z,7.93
2019-01-26T16:45:54.793Z,8.67
2019-01-26T16:48:26.269Z,7.63
2019-01-26T16:50:54.880Z,8.03
2019-01-26T16:53:26.363Z,7.70
2019-01-26T16:55:57.764Z,8.57
2019-01-26T16:58:26.354Z,8.60
2019-01-26T17:00:57.928Z,8.40
2019-01-26T17:03:26.911Z,8.97
2019-01-26T17:05:55.553Z,10.67
2019-01-26T17:08:26.839Z,10.50
2019-01-26T17:10:55.436Z,9.87
2019-01-26T17:13:24.580Z,10.40
2019-01-26T17:15:56.277Z,10.80
2019-01-26T17:18:24.990Z,9.17
2019-01-26T17:20:56.457Z,10.07
2019-01-26T17:23:25.425Z,9.23
2019-01-26T17:25:58.737Z,10.70
2019-01-26T17:28:30.046Z,10.73
2019-01-26T17:30:58.640Z,10.83
2019-01-26T17:33:27.299Z,10.20
2019-01-26T17:35:55.885Z,9.87
2019-01-26T17:38:24.435Z,10.77
2019-01-26T17:40:54.958Z,9.60
2019-01-26T17:43:25.197Z,10.50
2019-01-26T17:45:55.359Z,11.40
2019-01-26T17:48:26.866Z,10.40
2019-01-26T17:50:55.477Z,11.53
2019-01-26T17:53:27.136Z,10.37
2019-01-26T17:55:55.735Z,11.77
2019-01-26T17:58:24.286Z,11.07
2019-01-26T18:00:56.421Z,11.10
2019-01-26T18:03:25.078Z,10.27
2019-01-26T18:05:55.290Z,10.43
2019-01-26T18:08:29.935Z,11.00
2019-01-26T18:10:58.489Z,10.60
2019-01-26T18:13:27.091Z,10.10
2019-01-26T18:15:55.640Z,9.37
2019-01-26T18:18:24.688Z,10.87
2019-01-26T18:20:56.355Z,10.30
2019-01-26T18:23:25.835Z,10.50
2019-01-26T18:25:55.056Z,10.60
2019-01-26T18:28:25.147Z,9.20
2019-01-26T18:30:56.651Z,9.50
2019-01-26T18:33:25.311Z,9.03
2019-01-26T18:35:56.609Z,10.40
2019-01-26T18:38:25.164Z,11.83
2019-01-26T18:40:56.611Z,11.07
2019-01-26T18:43:25.234Z,11.13
2019-01-26T18:45:57.018Z,10.43
2019-01-26T18:48:25.742Z,10.40
2019-01-26T18:50:56.417Z,11.60
2019-01-26T18:53:25.189Z,11.13
2019-01-26T18:55:56.532Z,9.90
2019-01-26T18:58:25.135Z,10.60
2019-01-26T19:01:00.117Z,9.53
2019-01-26T19:03:34.783Z,10.20
2019-01-26T19:06:03.492Z,11.00
2019-01-26T19:08:32.143Z,10.60
2019-01-26T19:11:00.779Z,10.10
2019-01-26T19:13:32.375Z,9.07
2019-01-26T19:16:01.172Z,10.57
2019-01-26T19:18:33.004Z,8.43
2019-01-26T19:21:04.453Z,11.73
2019-01-26T19:23:35.704Z,10.37
2019-01-26T19:26:04.965Z,10.57
2019-01-26T19:28:36.210Z,9.80
2019-01-26T19:31:04.943Z,10.40
2019-01-26T19:33:36.804Z,9.13
2019-01-26T19:36:05.897Z,10.60
2019-01-26T19:38:34.506Z,10.80
2019-01-26T19:41:03.116Z,10.00
2019-01-26T19:43:31.679Z,9.20
2019-01-26T19:46:00.704Z,10.50
2019-01-26T19:48:29.350Z,8.47
2019-01-26T19:50:58.406Z,9.97
2019-01-26T19:53:27.129Z,8.80
2019-01-26T19:55:58.635Z,9.63
2019-01-26T19:58:27.274Z,9.40
2019-01-26T20:00:56.097Z,11.17
2019-01-26T20:03:24.712Z,9.63
2019-01-26T20:05:55.991Z,11.17
2019-01-26T20:08:25.003Z,10.10
2019-01-26T20:10:58.099Z,9.27
2019-01-26T20:13:29.227Z,11.33
2019-01-26T20:15:57.815Z,10.20
2019-01-26T20:18:26.520Z,13.13
2019-01-26T20:20:55.201Z,11.67
2019-01-26T20:23:29.680Z,10.20
2019-01-26T20:26:01.492Z,11.30
2019-01-26T20:28:33.246Z,9.60
2019-01-26T20:31:01.866Z,13.13
2019-01-26T20:33:30.417Z,11.10
2019-01-26T20:35:59.393Z,11.03
2019-01-26T20:38:38.827Z,9.70
2019-01-26T20:41:14.172Z,9.60
2019-01-26T20:43:54.478Z,9.00
2019-01-26T20:46:44.662Z,9.97
2019-01-26T20:49:25.211Z,10.30
2019-01-26T20:52:01.716Z,10.53
2019-01-26T20:54:46.062Z,10.50
2019-01-26T20:57:34.006Z,10.60
2019-01-26T21:00:03.052Z,8.77
2019-01-26T21:02:31.708Z,9.60
2019-01-26T21:05:00.381Z,9.80
2019-01-26T21:07:31.981Z,10.20
2019-01-26T21:10:00.531Z,10.80
2019-01-26T21:12:29.124Z,11.20
2019-01-26T21:15:04.408Z,11.53
2019-01-26T21:17:28.049Z,10.37
2019-01-26T21:19:56.597Z,9.80
2019-01-26T21:22:25.584Z,10.57
2019-01-26T21:24:54.146Z,10.33
2019-01-26T21:27:22.851Z,9.63
2019-01-26T21:29:54.493Z,10.23
2019-01-26T21:32:25.890Z,10.90
2019-01-26T21:34:54.569Z,9.03
2019-01-26T21:37:24.522Z,11.07
2019-01-26T21:40:16.544Z,9.30
2019-01-26T21:42:45.182Z,10.63
2019-01-26T21:45:15.521Z,8.73
2019-01-26T21:47:44.403Z,11.50
2019-01-26T21:50:16.067Z,11.10
2019-01-26T21:52:44.697Z,11.10
2019-01-26T21:55:16.540Z,10.73
2019-01-26T21:57:45.624Z,11.03
2019-01-26T22:00:25.477Z,11.73
2019-01-26T22:02:56.948Z,11.43
2019-01-26T22:05:25.617Z,13.97
2019-01-26T22:07:59.748Z,12.83
2019-01-26T22:10:31.013Z,13.40
2019-01-26T22:12:59.631Z,11.70
2019-01-26T22:15:31.518Z,14.53
2019-01-26T22:18:00.139Z,13.93
2019-01-26T22:20:29.374Z,14.07
2019-01-26T22:22:58.818Z,13.90
2019-01-26T22:25:27.531Z,13.57
2019-01-26T22:27:56.724Z,13.50
2019-01-26T22:30:28.170Z,14.00
2019-01-26T22:32:56.795Z,14.63
2019-01-26T22:35:25.456Z,14.80
2019-01-26T22:37:54.120Z,14.13
2019-01-26T22:40:25.121Z,14.77
2019-01-26T22:42:57.000Z,14.23
2019-01-26T22:45:26.065Z,15.80
2019-01-26T22:47:54.698Z,17.93
2019-01-26T22:50:25.733Z,15.90
2019-01-26T22:52:54.740Z,15.93
2019-01-26T22:55:23.616Z,15.60
2019-01-26T22:57:56.140Z,15.03
2019-01-26T23:00:53.727Z,14.90
2019-01-26T23:03:37.166Z,17.97
2019-01-26T23:06:23.712Z,16.07
2019-01-26T23:08:55.564Z,15.83
2019-01-26T23:11:30.220Z,15.40
2019-01-26T23:14:04.574Z,15.50
2019-01-26T23:16:42.101Z,16.40
2019-01-26T23:19:13.712Z,17.13
2019-01-26T23:22:07.907Z,17.80
2019-01-26T23:25:12.762Z,16.37
2019-01-26T23:27:53.368Z,18.07
2019-01-26T23:30:47.386Z,17.10
2019-01-26T23:33:18.789Z,16.90
2019-01-26T23:35:47.418Z,16.30
2019-01-26T23:38:19.016Z,17.47
2019-01-26T23:40:47.735Z,16.10
2019-01-26T23:43:19.525Z,19.23
2019-01-26T23:45:48.139Z,16.73
2019-01-26T23:48:19.828Z,16.37
2019-01-26T23:50:48.496Z,16.60
2019-01-26T23:53:17.075Z,16.73
2019-01-26T23:55:45.749Z,16.67
2019-01-26T23:58:14.304Z,15.80
